sensor_id;sensor_type;location;lat;lon;timestamp;temperature;humidity
40696;DHT22;40425;51.102;17.208;2022-11-22T00:02:59;2.60;99.90
40696;DHT22;40425;51.102;17.208;2022-11-22T00:07:59;2.50;99.90
40696;DHT22;40425;51.102;17.208;2022-11-22T00:13:00;2.60;99.90
40696;DHT22;40425;51.102;17.208;2022-11-22T00:18:01;2.70;99.90
40696;DHT22;40425;51.102;17.208;2022-11-22T00:23:03;2.70;99.90
40696;DHT22;40425;51.102;17.208;2022-11-22T00:28:04;2.70;99.90
40696;DHT22;40425;51.102;17.208;2022-11-22T00:33:05;2.60;99.90
40696;DHT22;40425;51.102;17.208;2022-11-22T00:38:05;2.60;99.90
40696;DHT22;40425;51.102;17.208;2022-11-22T00:43:06;2.60;99.90
40696;DHT22;40425;51.102;17.208;2022-11-22T00:48:07;2.50;99.90
40696;DHT22;40425;51.102;17.208;2022-11-22T00:53:08;2.50;99.90
40696;DHT22;40425;51.102;17.208;2022-11-22T00:58:09;2.50;99.90
40696;DHT22;40425;51.102;17.208;2022-11-22T01:03:11;2.50;99.90
40696;DHT22;40425;51.102;17.208;2022-11-22T01:08:13;2.50;99.90
40696;DHT22;40425;51.102;17.208;2022-11-22T01:13:14;2.40;99.90
40696;DHT22;40425;51.102;17.208;2022-11-22T01:18:15;2.30;99.90
40696;DHT22;40425;51.102;17.208;2022-11-22T01:23:15;2.10;99.90
40696;DHT22;40425;51.102;17.208;2022-11-22T01:28:17;2.00;99.90
40696;DHT22;40425;51.102;17.208;2022-11-22T01:33:19;2.00;99.90
40696;DHT22;40425;51.102;17.208;2022-11-22T01:38:20;2.00;99.90
40696;DHT22;40425;51.102;17.208;2022-11-22T01:43:24;1.90;99.90
40696;DHT22;40425;51.102;17.208;2022-11-22T01:48:55;1.80;99.90
40696;DHT22;40425;51.102;17.208;2022-11-22T01:54:03;1.90;99.90
40696;DHT22;40425;51.102;17.208;2022-11-22T01:59:08;1.90;99.90
40696;DHT22;40425;51.102;17.208;2022-11-22T02:04:14;1.70;99.90
40696;DHT22;40425;51.102;17.208;2022-11-22T02:09:16;1.70;99.90
40696;DHT22;40425;51.102;17.208;2022-11-22T02:14:20;1.60;99.90
40696;DHT22;40425;51.102;17.208;2022-11-22T02:19:32;1.50;99.90
40696;DHT22;40425;51.102;17.208;2022-11-22T02:24:43;1.40;99.90
40696;DHT22;40425;51.102;17.208;2022-11-22T02:29:45;1.50;99.90
40696;DHT22;40425;51.102;17.208;2022-11-22T02:34:48;1.60;99.90
40696;DHT22;40425;51.102;17.208;2022-11-22T02:39:55;1.70;99.90
40696;DHT22;40425;51.102;17.208;2022-11-22T02:44:56;1.70;99.90
40696;DHT22;40425;51.102;17.208;2022-11-22T02:49:57;1.60;99.90
40696;DHT22;40425;51.102;17.208;2022-11-22T02:54:58;1.60;99.90
40696;DHT22;40425;51.102;17.208;2022-11-22T02:59:59;1.50;99.90
40696;DHT22;40425;51.102;17.208;2022-11-22T03:05:00;1.40;99.90
40696;DHT22;40425;51.102;17.208;2022-11-22T03:10:01;1.20;99.90
40696;DHT22;40425;51.102;17.208;2022-11-22T03:15:02;1.30;99.90
40696;DHT22;40425;51.102;17.208;2022-11-22T03:20:04;1.40;99.90
40696;DHT22;40425;51.102;17.208;2022-11-22T03:25:05;1.60;99.90
40696;DHT22;40425;51.102;17.208;2022-11-22T03:30:06;1.60;99.90
40696;DHT22;40425;51.102;17.208;2022-11-22T03:35:08;1.60;99.90
40696;DHT22;40425;51.102;17.208;2022-11-22T03:40:09;1.60;99.90
40696;DHT22;40425;51.102;17.208;2022-11-22T03:45:10;1.60;99.90
40696;DHT22;40425;51.102;17.208;2022-11-22T03:50:11;1.60;99.90
40696;DHT22;40425;51.102;17.208;2022-11-22T03:55:12;1.70;99.90
40696;DHT22;40425;51.102;17.208;2022-11-22T04:00:13;1.70;99.90
40696;DHT22;40425;51.102;17.208;2022-11-22T04:05:15;1.80;99.90
40696;DHT22;40425;51.102;17.208;2022-11-22T04:10:15;1.80;99.90
40696;DHT22;40425;51.102;17.208;2022-11-22T04:15:16;1.80;99.90
40696;DHT22;40425;51.102;17.208;2022-11-22T04:20:23;1.80;99.90
40696;DHT22;40425;51.102;17.208;2022-11-22T04:25:48;1.80;99.90
40696;DHT22;40425;51.102;17.208;2022-11-22T04:30:50;1.90;99.90
40696;DHT22;40425;51.102;17.208;2022-11-22T04:36:09;1.90;99.90
40696;DHT22;40425;51.102;17.208;2022-11-22T04:41:10;1.80;99.90
40696;DHT22;40425;51.102;17.208;2022-11-22T04:46:12;1.90;99.90
40696;DHT22;40425;51.102;17.208;2022-11-22T04:51:13;2.00;99.90
40696;DHT22;40425;51.102;17.208;2022-11-22T04:56:32;2.00;99.90
40696;DHT22;40425;51.102;17.208;2022-11-22T05:01:33;2.10;99.90
40696;DHT22;40425;51.102;17.208;2022-11-22T05:06:36;2.10;99.90
40696;DHT22;40425;51.102;17.208;2022-11-22T05:11:38;2.10;99.90
40696;DHT22;40425;51.102;17.208;2022-11-22T05:16:39;2.00;99.90
40696;DHT22;40425;51.102;17.208;2022-11-22T05:21:40;2.00;99.90
40696;DHT22;40425;51.102;17.208;2022-11-22T05:26:41;2.10;99.90
40696;DHT22;40425;51.102;17.208;2022-11-22T05:31:42;2.30;99.90
40696;DHT22;40425;51.102;17.208;2022-11-22T05:36:43;2.40;99.90
40696;DHT22;40425;51.102;17.208;2022-11-22T05:41:44;2.40;99.90
40696;DHT22;40425;51.102;17.208;2022-11-22T05:46:55;2.30;99.90
40696;DHT22;40425;51.102;17.208;2022-11-22T05:51:58;2.20;99.90
40696;DHT22;40425;51.102;17.208;2022-11-22T05:56:59;2.30;99.90
40696;DHT22;40425;51.102;17.208;2022-11-22T06:02:00;2.30;99.90
40696;DHT22;40425;51.102;17.208;2022-11-22T06:07:01;2.20;99.90
40696;DHT22;40425;51.102;17.208;2022-11-22T06:12:03;2.30;99.90
40696;DHT22;40425;51.102;17.208;2022-11-22T06:17:04;2.20;99.90
40696;DHT22;40425;51.102;17.208;2022-11-22T06:22:07;2.30;99.90
40696;DHT22;40425;51.102;17.208;2022-11-22T06:27:09;2.40;99.90
40696;DHT22;40425;51.102;17.208;2022-11-22T06:32:10;2.40;99.90
40696;DHT22;40425;51.102;17.208;2022-11-22T06:37:15;2.40;99.90
40696;DHT22;40425;51.102;17.208;2022-11-22T06:42:16;2.30;99.90
40696;DHT22;40425;51.102;17.208;2022-11-22T06:47:17;2.30;99.90
40696;DHT22;40425;51.102;17.208;2022-11-22T06:52:19;2.40;99.90
40696;DHT22;40425;51.102;17.208;2022-11-22T06:57:19;2.50;99.90
40696;DHT22;40425;51.102;17.208;2022-11-22T07:02:21;2.50;99.90
40696;DHT22;40425;51.102;17.208;2022-11-22T07:07:22;2.60;99.90
40696;DHT22;40425;51.102;17.208;2022-11-22T07:12:23;2.60;99.90
40696;DHT22;40425;51.102;17.208;2022-11-22T07:17:24;2.60;99.90
40696;DHT22;40425;51.102;17.208;2022-11-22T07:22:25;2.70;99.90
40696;DHT22;40425;51.102;17.208;2022-11-22T07:27:29;2.90;99.90
40696;DHT22;40425;51.102;17.208;2022-11-22T07:32:30;2.90;99.90
40696;DHT22;40425;51.102;17.208;2022-11-22T07:37:31;2.90;99.90
40696;DHT22;40425;51.102;17.208;2022-11-22T07:42:33;2.90;99.90
40696;DHT22;40425;51.102;17.208;2022-11-22T07:47:35;2.80;99.90
40696;DHT22;40425;51.102;17.208;2022-11-22T07:52:36;2.80;99.90
40696;DHT22;40425;51.102;17.208;2022-11-22T07:57:37;2.90;99.90
40696;DHT22;40425;51.102;17.208;2022-11-22T08:02:38;2.90;99.90
40696;DHT22;40425;51.102;17.208;2022-11-22T08:07:44;2.90;99.90
40696;DHT22;40425;51.102;17.208;2022-11-22T08:12:46;3.00;99.90
40696;DHT22;40425;51.102;17.208;2022-11-22T08:17:48;3.10;99.90
40696;DHT22;40425;51.102;17.208;2022-11-22T08:22:49;3.10;99.90
40696;DHT22;40425;51.102;17.208;2022-11-22T08:27:49;3.00;99.90
40696;DHT22;40425;51.102;17.208;2022-11-22T08:32:56;2.90;99.90
40696;DHT22;40425;51.102;17.208;2022-11-22T08:37:56;3.00;99.90
40696;DHT22;40425;51.102;17.208;2022-11-22T08:42:57;3.00;99.90
40696;DHT22;40425;51.102;17.208;2022-11-22T08:47:58;3.10;99.90
40696;DHT22;40425;51.102;17.208;2022-11-22T08:53:00;3.20;99.90
40696;DHT22;40425;51.102;17.208;2022-11-22T08:58:01;3.40;99.90
40696;DHT22;40425;51.102;17.208;2022-11-22T09:03:02;3.50;99.90
40696;DHT22;40425;51.102;17.208;2022-11-22T09:08:03;3.70;99.90
40696;DHT22;40425;51.102;17.208;2022-11-22T09:13:04;3.80;99.90
40696;DHT22;40425;51.102;17.208;2022-11-22T09:18:05;3.80;99.90
40696;DHT22;40425;51.102;17.208;2022-11-22T09:23:06;3.90;99.90
40696;DHT22;40425;51.102;17.208;2022-11-22T09:28:07;3.90;99.90
40696;DHT22;40425;51.102;17.208;2022-11-22T09:33:09;4.00;99.90
40696;DHT22;40425;51.102;17.208;2022-11-22T09:38:10;4.00;99.90
40696;DHT22;40425;51.102;17.208;2022-11-22T09:43:20;3.90;99.90
40696;DHT22;40425;51.102;17.208;2022-11-22T09:54:00;4.10;99.90
40696;DHT22;40425;51.102;17.208;2022-11-22T09:59:20;4.20;99.90
40696;DHT22;40425;51.102;17.208;2022-11-22T10:04:53;4.30;99.90
40696;DHT22;40425;51.102;17.208;2022-11-22T10:10:16;4.50;99.90
40696;DHT22;40425;51.102;17.208;2022-11-22T10:21:02;4.30;99.90
40696;DHT22;40425;51.102;17.208;2022-11-22T10:31:15;4.30;99.90
40696;DHT22;40425;51.102;17.208;2022-11-22T10:42:14;4.30;99.90
40696;DHT22;40425;51.102;17.208;2022-11-22T10:52:57;4.50;99.90
40696;DHT22;40425;51.102;17.208;2022-11-22T11:03:35;4.50;99.90
40696;DHT22;40425;51.102;17.208;2022-11-22T11:08:43;4.60;99.90
40696;DHT22;40425;51.102;17.208;2022-11-22T11:13:57;4.90;99.90
40696;DHT22;40425;51.102;17.208;2022-11-22T11:24:05;5.10;99.90
40696;DHT22;40425;51.102;17.208;2022-11-22T11:34:25;5.40;99.90
40696;DHT22;40425;51.102;17.208;2022-11-22T11:39:29;5.60;99.90
40696;DHT22;40425;51.102;17.208;2022-11-22T11:44:32;5.60;99.90
40696;DHT22;40425;51.102;17.208;2022-11-22T11:49:35;5.70;99.90
40696;DHT22;40425;51.102;17.208;2022-11-22T11:54:44;5.80;99.90
40696;DHT22;40425;51.102;17.208;2022-11-22T11:59:47;5.80;99.90
40696;DHT22;40425;51.102;17.208;2022-11-22T12:04:53;5.90;99.90
40696;DHT22;40425;51.102;17.208;2022-11-22T12:09:55;6.10;99.90
40696;DHT22;40425;51.102;17.208;2022-11-22T12:26:08;6.10;99.90
40696;DHT22;40425;51.102;17.208;2022-11-22T12:31:26;6.10;99.90
40696;DHT22;40425;51.102;17.208;2022-11-22T12:41:45;6.10;99.90
40696;DHT22;40425;51.102;17.208;2022-11-22T12:46:53;6.20;99.90
40696;DHT22;40425;51.102;17.208;2022-11-22T12:52:14;6.20;99.90
40696;DHT22;40425;51.102;17.208;2022-11-22T12:57:36;6.20;99.90
40696;DHT22;40425;51.102;17.208;2022-11-22T13:02:45;6.10;99.90
40696;DHT22;40425;51.102;17.208;2022-11-22T13:13:28;5.50;99.90
40696;DHT22;40425;51.102;17.208;2022-11-22T13:18:36;5.50;99.90
40696;DHT22;40425;51.102;17.208;2022-11-22T13:23:53;5.50;99.90
40696;DHT22;40425;51.102;17.208;2022-11-22T13:28:57;5.30;99.90
40696;DHT22;40425;51.102;17.208;2022-11-22T13:34:00;5.10;99.90
40696;DHT22;40425;51.102;17.208;2022-11-22T13:39:10;5.10;99.90
40696;DHT22;40425;51.102;17.208;2022-11-22T13:44:35;5.10;99.90
40696;DHT22;40425;51.102;17.208;2022-11-22T13:49:40;5.10;99.90
40696;DHT22;40425;51.102;17.208;2022-11-22T13:55:23;5.00;99.90
40696;DHT22;40425;51.102;17.208;2022-11-22T14:00:38;5.00;99.90
40696;DHT22;40425;51.102;17.208;2022-11-22T14:05:40;5.10;99.90
40696;DHT22;40425;51.102;17.208;2022-11-22T14:10:58;5.10;99.90
40696;DHT22;40425;51.102;17.208;2022-11-22T14:21:58;4.90;99.90
40696;DHT22;40425;51.102;17.208;2022-11-22T14:32:24;4.80;99.90
40696;DHT22;40425;51.102;17.208;2022-11-22T14:53:20;5.10;99.90
40696;DHT22;40425;51.102;17.208;2022-11-22T14:58:24;5.30;99.90
40696;DHT22;40425;51.102;17.208;2022-11-22T15:03:51;5.30;99.90
40696;DHT22;40425;51.102;17.208;2022-11-22T15:09:20;5.30;99.90
40696;DHT22;40425;51.102;17.208;2022-11-22T15:14:59;5.40;99.90
40696;DHT22;40425;51.102;17.208;2022-11-22T15:20:36;5.40;99.90
40696;DHT22;40425;51.102;17.208;2022-11-22T15:25:38;5.40;99.90
40696;DHT22;40425;51.102;17.208;2022-11-22T15:30:39;5.30;99.90
40696;DHT22;40425;51.102;17.208;2022-11-22T15:36:03;5.10;99.90
40696;DHT22;40425;51.102;17.208;2022-11-22T15:41:08;5.00;99.90
40696;DHT22;40425;51.102;17.208;2022-11-22T15:46:12;5.10;99.90
40696;DHT22;40425;51.102;17.208;2022-11-22T15:56:41;5.20;99.90
40696;DHT22;40425;51.102;17.208;2022-11-22T16:01:44;5.20;99.90
40696;DHT22;40425;51.102;17.208;2022-11-22T16:06:45;5.30;99.90
40696;DHT22;40425;51.102;17.208;2022-11-22T16:11:52;5.30;99.90
40696;DHT22;40425;51.102;17.208;2022-11-22T16:16:53;5.30;99.90
40696;DHT22;40425;51.102;17.208;2022-11-22T16:21:56;5.30;99.90
40696;DHT22;40425;51.102;17.208;2022-11-22T16:26:59;5.20;99.90
40696;DHT22;40425;51.102;17.208;2022-11-22T16:32:03;5.10;99.90
40696;DHT22;40425;51.102;17.208;2022-11-22T16:37:28;5.10;99.90
40696;DHT22;40425;51.102;17.208;2022-11-22T16:42:36;5.00;99.90
40696;DHT22;40425;51.102;17.208;2022-11-22T16:47:44;5.10;99.90
40696;DHT22;40425;51.102;17.208;2022-11-22T16:52:46;5.10;99.90
40696;DHT22;40425;51.102;17.208;2022-11-22T16:57:46;5.00;99.90
40696;DHT22;40425;51.102;17.208;2022-11-22T17:02:47;5.10;99.90
40696;DHT22;40425;51.102;17.208;2022-11-22T17:07:48;5.10;99.90
40696;DHT22;40425;51.102;17.208;2022-11-22T17:12:52;5.10;99.90
40696;DHT22;40425;51.102;17.208;2022-11-22T17:17:53;5.00;99.90
40696;DHT22;40425;51.102;17.208;2022-11-22T17:22:54;4.90;99.90
40696;DHT22;40425;51.102;17.208;2022-11-22T17:27:55;4.80;99.90
40696;DHT22;40425;51.102;17.208;2022-11-22T17:32:56;4.90;99.90
40696;DHT22;40425;51.102;17.208;2022-11-22T17:37:57;4.70;99.90
40696;DHT22;40425;51.102;17.208;2022-11-22T17:42:58;4.50;99.90
40696;DHT22;40425;51.102;17.208;2022-11-22T17:47:59;4.50;99.90
40696;DHT22;40425;51.102;17.208;2022-11-22T17:53:00;4.60;99.90
40696;DHT22;40425;51.102;17.208;2022-11-22T17:58:01;4.50;99.90
40696;DHT22;40425;51.102;17.208;2022-11-22T18:03:02;4.50;99.90
40696;DHT22;40425;51.102;17.208;2022-11-22T18:08:03;4.50;99.90
40696;DHT22;40425;51.102;17.208;2022-11-22T18:13:04;4.60;99.90
40696;DHT22;40425;51.102;17.208;2022-11-22T18:18:05;4.60;99.90
40696;DHT22;40425;51.102;17.208;2022-11-22T18:23:07;4.70;99.90
40696;DHT22;40425;51.102;17.208;2022-11-22T18:28:08;4.70;99.90
40696;DHT22;40425;51.102;17.208;2022-11-22T18:33:09;4.60;99.90
40696;DHT22;40425;51.102;17.208;2022-11-22T18:38:13;4.60;99.90
40696;DHT22;40425;51.102;17.208;2022-11-22T18:43:14;4.60;99.90
40696;DHT22;40425;51.102;17.208;2022-11-22T18:48:15;4.70;99.90
40696;DHT22;40425;51.102;17.208;2022-11-22T18:53:16;4.20;99.90
40696;DHT22;40425;51.102;17.208;2022-11-22T18:58:19;3.70;99.90
40696;DHT22;40425;51.102;17.208;2022-11-22T19:03:20;3.70;99.90
40696;DHT22;40425;51.102;17.208;2022-11-22T19:08:22;3.90;99.90
40696;DHT22;40425;51.102;17.208;2022-11-22T19:13:24;4.10;99.90
40696;DHT22;40425;51.102;17.208;2022-11-22T19:18:26;4.20;99.90
40696;DHT22;40425;51.102;17.208;2022-11-22T19:23:29;4.20;99.90
40696;DHT22;40425;51.102;17.208;2022-11-22T19:28:33;4.20;99.90
40696;DHT22;40425;51.102;17.208;2022-11-22T19:33:36;4.20;99.90
40696;DHT22;40425;51.102;17.208;2022-11-22T19:38:39;4.30;99.90
40696;DHT22;40425;51.102;17.208;2022-11-22T19:43:40;4.00;99.90
40696;DHT22;40425;51.102;17.208;2022-11-22T19:48:42;3.90;99.90
40696;DHT22;40425;51.102;17.208;2022-11-22T19:53:44;3.90;99.90
40696;DHT22;40425;51.102;17.208;2022-11-22T19:58:50;3.80;99.90
40696;DHT22;40425;51.102;17.208;2022-11-22T20:03:53;3.60;99.90
40696;DHT22;40425;51.102;17.208;2022-11-22T20:09:04;3.50;99.90
40696;DHT22;40425;51.102;17.208;2022-11-22T20:14:06;3.40;99.90
40696;DHT22;40425;51.102;17.208;2022-11-22T20:19:07;3.30;99.90
40696;DHT22;40425;51.102;17.208;2022-11-22T20:24:09;3.30;99.90
40696;DHT22;40425;51.102;17.208;2022-11-22T20:29:12;3.30;99.90
40696;DHT22;40425;51.102;17.208;2022-11-22T20:34:14;3.40;99.90
40696;DHT22;40425;51.102;17.208;2022-11-22T20:39:15;3.30;99.90
40696;DHT22;40425;51.102;17.208;2022-11-22T20:44:16;3.40;99.90
40696;DHT22;40425;51.102;17.208;2022-11-22T20:49:17;3.40;99.90
40696;DHT22;40425;51.102;17.208;2022-11-22T20:54:18;3.40;99.90
40696;DHT22;40425;51.102;17.208;2022-11-22T20:59:19;3.50;99.90
40696;DHT22;40425;51.102;17.208;2022-11-22T21:04:20;3.50;99.90
40696;DHT22;40425;51.102;17.208;2022-11-22T21:09:21;3.50;99.90
40696;DHT22;40425;51.102;17.208;2022-11-22T21:14:22;3.60;99.90
40696;DHT22;40425;51.102;17.208;2022-11-22T21:19:22;3.60;99.90
40696;DHT22;40425;51.102;17.208;2022-11-22T21:24:24;3.60;99.90
40696;DHT22;40425;51.102;17.208;2022-11-22T21:29:25;3.60;99.90
40696;DHT22;40425;51.102;17.208;2022-11-22T21:34:26;3.70;99.90
40696;DHT22;40425;51.102;17.208;2022-11-22T21:39:27;3.80;99.90
40696;DHT22;40425;51.102;17.208;2022-11-22T21:44:28;3.80;99.90
40696;DHT22;40425;51.102;17.208;2022-11-22T21:49:30;3.90;99.90
40696;DHT22;40425;51.102;17.208;2022-11-22T21:54:32;3.90;99.90
40696;DHT22;40425;51.102;17.208;2022-11-22T21:59:33;3.90;99.90
40696;DHT22;40425;51.102;17.208;2022-11-22T22:04:38;3.30;99.90
40696;DHT22;40425;51.102;17.208;2022-11-22T22:09:39;2.90;99.90
40696;DHT22;40425;51.102;17.208;2022-11-22T22:14:41;3.10;99.90
40696;DHT22;40425;51.102;17.208;2022-11-22T22:19:44;3.10;99.90
40696;DHT22;40425;51.102;17.208;2022-11-22T22:24:55;2.90;99.90
40696;DHT22;40425;51.102;17.208;2022-11-22T22:29:56;3.00;99.90
40696;DHT22;40425;51.102;17.208;2022-11-22T22:34:57;3.20;99.90
40696;DHT22;40425;51.102;17.208;2022-11-22T22:39:58;3.20;99.90
40696;DHT22;40425;51.102;17.208;2022-11-22T22:44:59;3.20;99.90
40696;DHT22;40425;51.102;17.208;2022-11-22T22:50:00;3.20;99.90
40696;DHT22;40425;51.102;17.208;2022-11-22T22:55:01;3.20;99.90
40696;DHT22;40425;51.102;17.208;2022-11-22T23:00:02;3.10;99.90
40696;DHT22;40425;51.102;17.208;2022-11-22T23:05:04;3.00;99.90
40696;DHT22;40425;51.102;17.208;2022-11-22T23:10:05;2.80;99.90
40696;DHT22;40425;51.102;17.208;2022-11-22T23:15:07;2.90;99.90
40696;DHT22;40425;51.102;17.208;2022-11-22T23:20:08;3.10;99.90
40696;DHT22;40425;51.102;17.208;2022-11-22T23:25:09;3.20;99.90
40696;DHT22;40425;51.102;17.208;2022-11-22T23:30:10;3.10;99.90
40696;DHT22;40425;51.102;17.208;2022-11-22T23:35:11;3.10;99.90
40696;DHT22;40425;51.102;17.208;2022-11-22T23:40:12;3.20;99.90
40696;DHT22;40425;51.102;17.208;2022-11-22T23:45:13;3.30;99.90
40696;DHT22;40425;51.102;17.208;2022-11-22T23:50:14;3.10;99.90
40696;DHT22;40425;51.102;17.208;2022-11-22T23:55:15;3.00;99.90
